Time;durP1;ratioP1;P1;durP2;ratioP2;P2;SDS_P1;SDS_P2;PMS_P1;PMS_P2;Temp;Humidity;BMP_temperature;BMP_pressure;BME280_temperature;BME280_humidity;BME280_pressure;Samples;Min_cycle;Max_cycle;Signal;HPM_P1;HPM_P2
2023/01/15 00:01:02;;;;;;;9.55;5.15;;;;;;;;;;5060851;28;20029;-82
2023/01/15 00:03:28;;;;;;;11.80;5.85;;;;;;;;;;5046133;28;20033;-82
2023/01/15 00:05:54;;;;;;;11.02;5.95;;;;;;;;;;5051561;28;20380;-82
2023/01/15 00:08:20;;;;;;;11.55;5.50;;;;;;;;;;5049510;28;20039;-82
2023/01/15 00:10:46;;;;;;;10.25;4.18;;;;;;;;;;5052164;28;20108;-82
2023/01/15 00:13:12;;;;;;;9.00;3.17;;;;;;;;;;5066833;28;20127;-82
2023/01/15 00:15:38;;;;;;;10.50;4.97;;;;;;;;;;5048225;28;20394;-82
2023/01/15 00:18:05;;;;;;;13.57;6.00;;;;;;;;;;5062926;28;20036;-82
2023/01/15 00:20:31;;;;;;;9.32;4.53;;;;;;;;;;5069878;28;20099;-82
2023/01/15 00:22:56;;;;;;;9.45;3.97;;;;;;;;;;5051232;28;20463;-82
2023/01/15 00:28:07;;;;;;;18.38;9.73;;;;;;;;;;5069783;28;20082;-82
2023/01/15 00:30:33;;;;;;;12.65;7.18;;;;;;;;;;5069393;28;20506;-82
2023/01/15 00:32:59;;;;;;;10.40;5.18;;;;;;;;;;5047061;28;20029;-82
2023/01/15 00:35:25;;;;;;;4.28;1.67;;;;;;;;;;5069655;28;20046;-82
2023/01/15 00:37:51;;;;;;;4.85;1.70;;;;;;;;;;5069812;28;20032;-82
2023/01/15 00:40:19;;;;;;;2.05;0.30;;;;;;;;;;5069368;28;20034;-82
2023/01/15 00:42:45;;;;;;;4.20;1.35;;;;;;;;;;5051721;28;20029;-82
2023/01/15 00:45:12;;;;;;;3.40;0.47;;;;;;;;;;5051003;28;20033;-82
2023/01/15 00:47:42;;;;;;;0.60;0.10;;;;;;;;;;5051722;28;20067;-82
2023/01/15 00:50:09;;;;;;;0.17;0.03;;;;;;;;;;5050571;28;20043;-82
2023/01/15 00:52:35;;;;;;;1.45;0.17;;;;;;;;;;5069385;28;20038;-81
2023/01/15 00:55:01;;;;;;;1.35;0.10;;;;;;;;;;5067609;28;20032;-81
2023/01/15 00:57:28;;;;;;;0.45;0.10;;;;;;;;;;5069333;28;20412;-82
2023/01/15 00:59:54;;;;;;;1.00;0.10;;;;;;;;;;5051039;28;20087;-82
2023/01/15 01:02:20;;;;;;;0.38;0.00;;;;;;;;;;5069848;28;20064;-81
2023/01/15 01:04:46;;;;;;;1.35;0.10;;;;;;;;;;5050403;28;20040;-82
2023/01/15 01:07:12;;;;;;;0.10;0.00;;;;;;;;;;5051293;28;20202;-81
2023/01/15 01:09:39;;;;;;;0.10;0.00;;;;;;;;;;5068582;28;20028;-81
2023/01/15 01:12:05;;;;;;;0.13;0.00;;;;;;;;;;5051108;28;20044;-82
2023/01/15 01:14:31;;;;;;;0.30;0.00;;;;;;;;;;5050011;28;20127;-82
2023/01/15 01:16:57;;;;;;;0.30;0.10;;;;;;;;;;5051079;28;20040;-82
2023/01/15 01:19:24;;;;;;;0.30;0.10;;;;;;;;;;5068449;28;20112;-81
2023/01/15 01:21:51;;;;;;;1.48;0.00;;;;;;;;;;5050419;28;20115;-81
2023/01/15 01:24:22;;;;;;;0.20;0.10;;;;;;;;;;5064540;28;20040;-81
2023/01/15 01:26:48;;;;;;;0.10;0.10;;;;;;;;;;5066355;28;20452;-81
2023/01/15 01:29:19;;;;;;;0.25;0.10;;;;;;;;;;5067420;28;20036;-81
2023/01/15 01:31:45;;;;;;;0.10;0.10;;;;;;;;;;5050288;28;20029;-81
2023/01/15 01:34:12;;;;;;;0.40;0.15;;;;;;;;;;5049144;28;20040;-81
2023/01/15 01:36:39;;;;;;;0.55;0.10;;;;;;;;;;5047465;28;20522;-82
2023/01/15 01:39:06;;;;;;;0.30;0.10;;;;;;;;;;5046733;28;20029;-81
2023/01/15 01:41:32;;;;;;;1.70;0.10;;;;;;;;;;5049291;28;20742;-81
2023/01/15 01:44:02;;;;;;;0.20;0.00;;;;;;;;;;5050540;28;20475;-81
2023/01/15 01:46:29;;;;;;;0.32;0.10;;;;;;;;;;5067460;28;20025;-81
2023/01/15 01:49:03;;;;;;;0.35;0.10;;;;;;;;;;5050981;28;20035;-81
2023/01/15 01:51:33;;;;;;;0.52;0.20;;;;;;;;;;5040257;28;20698;-82
2023/01/15 01:54:00;;;;;;;1.00;0.20;;;;;;;;;;5068877;28;20116;-81
2023/01/15 01:56:26;;;;;;;0.10;0.10;;;;;;;;;;5067769;28;20033;-81
2023/01/15 01:58:53;;;;;;;1.25;0.20;;;;;;;;;;5047318;28;20090;-81
2023/01/15 02:01:21;;;;;;;3.65;0.10;;;;;;;;;;5061282;28;20044;-81
2023/01/15 02:03:47;;;;;;;1.88;0.10;;;;;;;;;;5065619;28;20051;-81
2023/01/15 02:06:14;;;;;;;1.05;0.20;;;;;;;;;;5068434;28;20060;-83
2023/01/15 02:08:41;;;;;;;0.30;0.15;;;;;;;;;;5062640;28;20510;-81
2023/01/15 02:11:07;;;;;;;1.42;0.20;;;;;;;;;;5066875;28;20131;-81
2023/01/15 02:13:36;;;;;;;0.77;0.13;;;;;;;;;;5068131;28;20037;-81
2023/01/15 02:16:06;;;;;;;0.98;0.17;;;;;;;;;;5049912;28;20036;-81
2023/01/15 02:18:36;;;;;;;1.27;0.20;;;;;;;;;;5068538;28;20037;-82
2023/01/15 02:21:11;;;;;;;0.52;0.20;;;;;;;;;;5065410;28;20028;-81
2023/01/15 02:23:37;;;;;;;1.00;0.10;;;;;;;;;;5068784;28;20689;-82
2023/01/15 02:26:22;;;;;;;0.22;0.08;;;;;;;;;;5049200;28;20033;-82
2023/01/15 02:28:49;;;;;;;1.15;0.20;;;;;;;;;;5068551;28;20036;-82
2023/01/15 02:31:17;;;;;;;1.63;0.30;;;;;;;;;;5053781;28;20032;-81
2023/01/15 02:34:03;;;;;;;1.05;0.30;;;;;;;;;;5061171;28;20047;-81
2023/01/15 02:36:31;;;;;;;1.70;0.20;;;;;;;;;;5057859;28;20059;-82
2023/01/15 02:38:58;;;;;;;1.45;0.38;;;;;;;;;;5072125;28;20032;-81
2023/01/15 02:41:26;;;;;;;1.52;0.40;;;;;;;;;;5071311;28;20505;-81
2023/01/15 02:43:54;;;;;;;1.52;0.40;;;;;;;;;;5071620;28;20094;-81
2023/01/15 02:46:22;;;;;;;1.90;0.30;;;;;;;;;;5047052;28;20036;-81
2023/01/15 02:48:52;;;;;;;3.45;0.70;;;;;;;;;;5054087;28;20056;-81
2023/01/15 02:51:20;;;;;;;3.42;0.80;;;;;;;;;;5071634;28;20029;-81
2023/01/15 02:53:48;;;;;;;4.22;0.73;;;;;;;;;;5054303;28;20111;-81
2023/01/15 02:56:23;;;;;;;2.92;0.60;;;;;;;;;;5053366;28;20494;-81
2023/01/15 02:58:52;;;;;;;2.42;0.60;;;;;;;;;;5072260;28;20812;-80
2023/01/15 03:01:30;;;;;;;3.20;0.40;;;;;;;;;;5070729;28;20066;-81
2023/01/15 03:04:09;;;;;;;1.63;0.30;;;;;;;;;;5061693;28;20028;-81
2023/01/15 03:06:41;;;;;;;2.47;0.30;;;;;;;;;;5053299;28;20050;-81
2023/01/15 03:09:07;;;;;;;1.00;0.30;;;;;;;;;;5071708;28;20059;-81
2023/01/15 03:11:36;;;;;;;1.75;0.60;;;;;;;;;;5069492;28;20070;-81
2023/01/15 03:14:13;;;;;;;5.32;1.20;;;;;;;;;;5049791;28;20040;-81
2023/01/15 03:16:41;;;;;;;3.13;1.15;;;;;;;;;;5062363;28;20028;-82
2023/01/15 03:19:26;;;;;;;3.33;1.08;;;;;;;;;;5070500;28;20036;-81
2023/01/15 03:21:52;;;;;;;4.25;1.48;;;;;;;;;;5070794;28;20037;-81
2023/01/15 03:24:24;;;;;;;2.55;0.75;;;;;;;;;;5043955;28;20048;-81
2023/01/15 03:26:51;;;;;;;1.35;0.52;;;;;;;;;;5052530;28;20043;-81
2023/01/15 03:29:18;;;;;;;4.30;1.10;;;;;;;;;;5071178;28;20035;-81
2023/01/15 03:31:44;;;;;;;4.43;0.80;;;;;;;;;;5046291;28;20035;-81
2023/01/15 03:34:11;;;;;;;3.88;0.47;;;;;;;;;;5071203;28;20044;-82
2023/01/15 03:36:37;;;;;;;2.38;0.80;;;;;;;;;;5070214;28;20036;-82
2023/01/15 03:39:03;;;;;;;2.42;0.70;;;;;;;;;;5070483;28;20075;-81
2023/01/15 03:41:35;;;;;;;3.55;0.82;;;;;;;;;;5069714;28;20032;-82
2023/01/15 03:44:25;;;;;;;3.05;0.80;;;;;;;;;;5053180;28;20029;-81
2023/01/15 03:46:58;;;;;;;2.45;0.75;;;;;;;;;;5064139;28;20107;-82
2023/01/15 03:49:24;;;;;;;2.83;1.10;;;;;;;;;;5058712;28;20075;-82
2023/01/15 03:51:59;;;;;;;3.70;1.20;;;;;;;;;;5059405;28;20042;-81
2023/01/15 03:54:40;;;;;;;3.90;1.13;;;;;;;;;;5056874;28;20419;-81
2023/01/15 03:57:27;;;;;;;5.85;0.88;;;;;;;;;;5051391;28;20043;-81
2023/01/15 03:59:55;;;;;;;3.13;0.90;;;;;;;;;;5060407;28;20037;-81
2023/01/15 04:02:22;;;;;;;3.75;1.00;;;;;;;;;;5039984;28;20036;-81
2023/01/15 04:04:49;;;;;;;5.90;0.88;;;;;;;;;;5070230;28;20071;-81
2023/01/15 04:07:15;;;;;;;3.72;0.70;;;;;;;;;;5070668;28;20106;-81
2023/01/15 04:09:41;;;;;;;5.63;0.60;;;;;;;;;;5070027;28;20098;-81
2023/01/15 04:12:07;;;;;;;2.75;0.68;;;;;;;;;;5052496;28;20055;-81
2023/01/15 04:14:33;;;;;;;6.90;0.77;;;;;;;;;;5070300;28;20064;-81
2023/01/15 04:17:00;;;;;;;3.38;0.80;;;;;;;;;;5046437;28;20103;-81
2023/01/15 04:19:26;;;;;;;1.65;0.40;;;;;;;;;;5063866;28;20136;-81
2023/01/15 04:21:51;;;;;;;0.50;0.30;;;;;;;;;;5067608;28;20132;-81
2023/01/15 04:24:17;;;;;;;1.85;0.25;;;;;;;;;;5051659;28;20859;-81
2023/01/15 04:26:43;;;;;;;2.20;0.60;;;;;;;;;;5069783;28;20036;-81
2023/01/15 04:29:09;;;;;;;3.72;0.90;;;;;;;;;;5051015;28;20816;-81
2023/01/15 04:31:35;;;;;;;4.10;1.10;;;;;;;;;;5051912;28;20066;-81
2023/01/15 04:34:02;;;;;;;3.78;0.70;;;;;;;;;;5057980;28;20100;-81
2023/01/15 04:36:28;;;;;;;3.08;0.93;;;;;;;;;;5068219;28;20070;-81
2023/01/15 04:38:56;;;;;;;2.80;0.90;;;;;;;;;;5048831;28;20032;-82
2023/01/15 04:44:07;;;;;;;1.58;0.40;;;;;;;;;;5068914;28;20095;-81
2023/01/15 04:46:34;;;;;;;1.30;0.40;;;;;;;;;;5051491;28;20166;-82
2023/01/15 04:49:00;;;;;;;1.48;0.30;;;;;;;;;;5066945;28;20032;-82
2023/01/15 04:51:26;;;;;;;2.58;0.40;;;;;;;;;;5069904;28;20020;-82
2023/01/15 04:53:52;;;;;;;1.63;0.50;;;;;;;;;;5059044;28;20040;-82
2023/01/15 04:56:18;;;;;;;1.17;0.30;;;;;;;;;;5068077;28;20021;-82
2023/01/15 04:58:44;;;;;;;1.55;0.30;;;;;;;;;;5048644;28;20052;-81
2023/01/15 05:01:12;;;;;;;1.90;0.50;;;;;;;;;;5065288;28;20024;-82
2023/01/15 05:03:38;;;;;;;1.77;0.40;;;;;;;;;;5067015;28;20039;-81
2023/01/15 05:06:04;;;;;;;1.88;0.30;;;;;;;;;;5050818;28;20407;-81
2023/01/15 05:08:30;;;;;;;0.90;0.20;;;;;;;;;;5051471;28;20040;-81
2023/01/15 05:10:56;;;;;;;2.10;0.30;;;;;;;;;;5048392;28;20826;-81
2023/01/15 05:13:22;;;;;;;2.97;0.63;;;;;;;;;;5069188;28;20538;-82
2023/01/15 05:15:48;;;;;;;2.20;0.60;;;;;;;;;;5048277;28;20063;-82
2023/01/15 05:18:14;;;;;;;2.78;0.52;;;;;;;;;;5048119;28;20037;-81
2023/01/15 05:20:41;;;;;;;3.92;0.45;;;;;;;;;;5061681;28;20107;-81
2023/01/15 05:23:07;;;;;;;1.92;0.50;;;;;;;;;;5047901;28;20033;-81
2023/01/15 05:25:33;;;;;;;2.60;1.05;;;;;;;;;;5068362;28;20075;-81
2023/01/15 05:27:59;;;;;;;1.38;0.50;;;;;;;;;;5067843;28;20158;-81
2023/01/15 05:30:25;;;;;;;1.90;0.68;;;;;;;;;;5048882;28;20498;-81
2023/01/15 05:32:51;;;;;;;2.92;0.80;;;;;;;;;;5069248;28;20070;-81
2023/01/15 05:35:17;;;;;;;2.22;1.15;;;;;;;;;;5068316;28;20035;-81
2023/01/15 05:37:43;;;;;;;1.88;0.30;;;;;;;;;;5069090;28;20033;-82
2023/01/15 05:40:09;;;;;;;0.55;0.20;;;;;;;;;;5050112;28;20396;-81
2023/01/15 05:42:35;;;;;;;1.23;0.30;;;;;;;;;;5068757;28;20032;-82
2023/01/15 05:45:01;;;;;;;1.38;0.50;;;;;;;;;;5068582;28;20052;-82
2023/01/15 05:47:27;;;;;;;1.52;0.57;;;;;;;;;;5068623;28;20637;-81
2023/01/15 05:49:53;;;;;;;2.88;0.40;;;;;;;;;;5068926;28;20040;-82
2023/01/15 05:52:19;;;;;;;2.00;0.70;;;;;;;;;;5050662;28;20036;-81
2023/01/15 05:54:45;;;;;;;1.52;0.30;;;;;;;;;;5068808;28;20028;-81
2023/01/15 05:57:12;;;;;;;2.70;0.80;;;;;;;;;;5067492;28;20473;-81
2023/01/15 05:59:38;;;;;;;3.05;0.80;;;;;;;;;;5051117;28;20039;-81
2023/01/15 06:02:04;;;;;;;1.70;0.60;;;;;;;;;;5049215;28;20052;-81
2023/01/15 06:04:30;;;;;;;3.92;0.80;;;;;;;;;;5068296;28;20491;-81
2023/01/15 06:06:57;;;;;;;3.70;1.23;;;;;;;;;;5072144;28;20036;-82
2023/01/15 06:09:23;;;;;;;3.33;1.50;;;;;;;;;;5054251;28;20148;-81
2023/01/15 06:11:50;;;;;;;3.05;1.10;;;;;;;;;;5070965;28;20077;-81
2023/01/15 06:14:16;;;;;;;4.90;1.70;;;;;;;;;;5051447;28;20104;-83
2023/01/15 06:16:42;;;;;;;2.53;0.80;;;;;;;;;;5068441;28;20032;-81
2023/01/15 06:19:09;;;;;;;1.80;0.50;;;;;;;;;;5066486;28;20530;-80
2023/01/15 06:21:35;;;;;;;2.28;0.77;;;;;;;;;;5071234;28;20020;-80
2023/01/15 06:24:02;;;;;;;3.53;1.00;;;;;;;;;;5071188;28;20031;-80
2023/01/15 06:26:28;;;;;;;1.48;0.40;;;;;;;;;;5067779;28;20070;-80
2023/01/15 06:28:54;;;;;;;2.90;0.35;;;;;;;;;;5071313;28;20526;-80
2023/01/15 06:31:21;;;;;;;5.20;1.90;;;;;;;;;;5071145;28;20111;-80
2023/01/15 06:33:47;;;;;;;4.85;1.95;;;;;;;;;;5062840;28;20064;-79
2023/01/15 06:36:20;;;;;;;3.58;0.60;;;;;;;;;;5069142;28;20059;-81
2023/01/15 06:38:46;;;;;;;1.60;0.20;;;;;;;;;;5065063;28;20070;-82
2023/01/15 06:49:33;;;;;;;0.82;0.20;;;;;;;;;;5072381;28;20403;-79
2023/01/15 06:51:59;;;;;;;1.92;0.28;;;;;;;;;;5072424;28;20040;-79
2023/01/15 06:54:25;;;;;;;1.73;0.30;;;;;;;;;;5071448;28;20068;-79
2023/01/15 06:56:51;;;;;;;1.45;0.45;;;;;;;;;;5070372;28;20103;-79
2023/01/15 06:59:18;;;;;;;1.35;0.28;;;;;;;;;;5072473;28;20116;-79
2023/01/15 07:01:44;;;;;;;5.28;2.45;;;;;;;;;;5072292;28;20032;-79
2023/01/15 07:04:10;;;;;;;0.50;0.22;;;;;;;;;;5071792;28;20033;-79
2023/01/15 07:06:36;;;;;;;3.85;1.80;;;;;;;;;;5070904;28;20099;-79
2023/01/15 07:09:02;;;;;;;3.03;0.80;;;;;;;;;;5070127;28;20119;-80
2023/01/15 07:11:28;;;;;;;1.10;0.30;;;;;;;;;;5069146;28;20157;-80
2023/01/15 07:14:06;;;;;;;2.78;0.90;;;;;;;;;;5069804;28;20551;-78
2023/01/15 07:16:33;;;;;;;3.97;1.20;;;;;;;;;;5049805;28;20032;-79
2023/01/15 07:18:59;;;;;;;1.65;0.40;;;;;;;;;;5071275;28;20506;-79
2023/01/15 07:21:26;;;;;;;3.13;0.50;;;;;;;;;;5070492;28;20729;-79
2023/01/15 07:23:52;;;;;;;0.80;0.40;;;;;;;;;;5049373;28;20535;-79
2023/01/15 07:26:18;;;;;;;2.17;0.43;;;;;;;;;;5072040;28;20388;-80
2023/01/15 07:28:44;;;;;;;6.88;1.00;;;;;;;;;;5074974;28;20029;-80
2023/01/15 07:31:10;;;;;;;3.30;1.30;;;;;;;;;;5071686;28;20033;-80
2023/01/15 07:33:36;;;;;;;5.00;1.50;;;;;;;;;;5070693;28;20028;-81
2023/01/15 07:36:02;;;;;;;5.93;1.00;;;;;;;;;;5072785;28;20455;-80
2023/01/15 07:38:28;;;;;;;3.35;0.88;;;;;;;;;;5073322;28;20083;-80
2023/01/15 07:52:09;;;;;;;1.73;0.60;;;;;;;;;;5067605;28;20545;-81
2023/01/15 07:54:35;;;;;;;1.20;0.40;;;;;;;;;;5072427;28;20040;-83
2023/01/15 07:57:02;;;;;;;2.03;0.60;;;;;;;;;;5052211;28;20027;-83
2023/01/15 07:59:28;;;;;;;3.55;0.50;;;;;;;;;;5071261;28;20025;-83
2023/01/15 08:01:54;;;;;;;3.60;0.45;;;;;;;;;;5051873;28;20033;-82
2023/01/15 08:04:20;;;;;;;2.50;0.50;;;;;;;;;;5050588;28;20053;-82
2023/01/15 08:06:46;;;;;;;3.60;0.50;;;;;;;;;;5069740;28;20067;-81
2023/01/15 08:09:12;;;;;;;0.95;0.30;;;;;;;;;;5071291;28;20032;-81
2023/01/15 08:17:27;;;;;;;2.42;0.50;;;;;;;;;;4995410;28;20084;-81
2023/01/15 08:19:53;;;;;;;2.63;0.60;;;;;;;;;;5043175;28;20052;-81
2023/01/15 08:22:19;;;;;;;2.00;0.70;;;;;;;;;;5065692;28;20051;-82
2023/01/15 08:24:45;;;;;;;2.58;0.85;;;;;;;;;;5068632;28;20032;-82
2023/01/15 08:27:12;;;;;;;2.95;0.70;;;;;;;;;;5064787;28;20040;-81
2023/01/15 08:29:38;;;;;;;4.20;1.02;;;;;;;;;;5070032;28;20033;-82
2023/01/15 08:32:04;;;;;;;2.45;1.00;;;;;;;;;;5069362;28;20388;-82
2023/01/15 08:34:30;;;;;;;2.88;1.08;;;;;;;;;;5069922;28;20041;-81
2023/01/15 08:36:58;;;;;;;6.70;2.25;;;;;;;;;;5066101;28;20032;-82
2023/01/15 08:39:27;;;;;;;4.47;1.92;;;;;;;;;;5060851;28;20041;-81
2023/01/15 08:41:56;;;;;;;5.10;1.98;;;;;;;;;;5067635;28;20459;-82
2023/01/15 08:44:23;;;;;;;4.68;2.13;;;;;;;;;;5070004;28;20075;-81
2023/01/15 08:46:50;;;;;;;5.13;1.90;;;;;;;;;;5050145;28;20063;-82
2023/01/15 08:49:16;;;;;;;5.60;2.08;;;;;;;;;;5070061;28;20040;-82
2023/01/15 08:51:43;;;;;;;8.18;4.07;;;;;;;;;;5069053;28;20103;-83
2023/01/15 08:54:09;;;;;;;6.13;3.70;;;;;;;;;;5065513;28;20087;-82
2023/01/15 08:56:35;;;;;;;7.72;4.57;;;;;;;;;;5051611;28;20546;-82
2023/01/15 08:59:06;;;;;;;11.50;4.65;;;;;;;;;;5060352;28;20040;-80
2023/01/15 09:01:32;;;;;;;10.55;5.88;;;;;;;;;;5065081;28;20016;-80
2023/01/15 09:03:58;;;;;;;5.25;2.10;;;;;;;;;;5069798;28;20036;-79
2023/01/15 09:06:25;;;;;;;3.88;1.40;;;;;;;;;;5063955;28;20028;-79
2023/01/15 09:08:51;;;;;;;3.13;0.60;;;;;;;;;;5070054;28;20032;-79
2023/01/15 09:11:17;;;;;;;5.78;1.48;;;;;;;;;;5069905;28;20029;-80
2023/01/15 09:13:45;;;;;;;3.90;0.90;;;;;;;;;;5070213;28;20108;-80
2023/01/15 09:16:11;;;;;;;3.08;0.63;;;;;;;;;;5068619;28;20035;-79
2023/01/15 09:18:40;;;;;;;1.90;0.40;;;;;;;;;;5068624;28;20040;-80
2023/01/15 09:21:06;;;;;;;0.28;0.15;;;;;;;;;;5048768;28;20060;-79
2023/01/15 09:23:32;;;;;;;3.45;0.47;;;;;;;;;;5068766;28;20055;-80
2023/01/15 09:26:04;;;;;;;9.57;2.50;;;;;;;;;;5069238;28;20020;-79
2023/01/15 09:28:31;;;;;;;6.18;1.13;;;;;;;;;;5070043;28;20028;-80
2023/01/15 09:30:57;;;;;;;3.22;0.80;;;;;;;;;;5069765;28;20289;-80
2023/01/15 09:33:23;;;;;;;4.20;0.80;;;;;;;;;;5067907;28;20422;-81
2023/01/15 09:35:49;;;;;;;2.30;0.57;;;;;;;;;;5050790;28;20932;-81
2023/01/15 09:38:16;;;;;;;4.65;0.60;;;;;;;;;;5067341;28;20099;-82
2023/01/15 09:40:45;;;;;;;3.28;0.85;;;;;;;;;;5072868;28;20028;-80
2023/01/15 09:43:20;;;;;;;3.25;0.70;;;;;;;;;;5075094;28;20029;-80
2023/01/15 09:45:54;;;;;;;1.92;0.30;;;;;;;;;;5071076;28;20111;-80
2023/01/15 09:48:23;;;;;;;1.50;0.40;;;;;;;;;;5074668;28;20037;-81
2023/01/15 09:50:52;;;;;;;1.25;0.40;;;;;;;;;;5072553;28;20046;-81
2023/01/15 09:53:18;;;;;;;2.80;0.43;;;;;;;;;;5063544;28;20040;-80
2023/01/15 09:55:49;;;;;;;0.82;0.20;;;;;;;;;;5074762;28;20082;-81
2023/01/15 09:58:16;;;;;;;1.00;0.20;;;;;;;;;;5053539;28;20537;-81
2023/01/15 10:00:46;;;;;;;1.88;0.38;;;;;;;;;;5068891;28;20033;-81
2023/01/15 10:03:12;;;;;;;4.20;0.47;;;;;;;;;;5071016;28;20107;-80
2023/01/15 10:05:58;;;;;;;1.52;0.30;;;;;;;;;;5064403;28;20132;-83
2023/01/15 10:08:33;;;;;;;0.60;0.30;;;;;;;;;;5044405;28;20048;-83
2023/01/15 10:11:04;;;;;;;1.92;0.20;;;;;;;;;;5032051;28;20025;-83
2023/01/15 10:13:41;;;;;;;0.90;0.20;;;;;;;;;;5034267;28;20068;-83
2023/01/15 10:16:09;;;;;;;1.02;0.20;;;;;;;;;;5034928;28;20035;-81
2023/01/15 10:18:35;;;;;;;0.93;0.32;;;;;;;;;;5052345;28;20036;-81
2023/01/15 10:21:07;;;;;;;0.45;0.20;;;;;;;;;;5033756;28;20038;-81
2023/01/15 10:23:35;;;;;;;0.38;0.20;;;;;;;;;;5050190;28;20506;-80
2023/01/15 10:26:02;;;;;;;0.55;0.10;;;;;;;;;;5049410;28;20060;-80
2023/01/15 10:28:37;;;;;;;0.47;0.17;;;;;;;;;;5052961;28;20041;-80
2023/01/15 10:31:07;;;;;;;1.63;0.40;;;;;;;;;;5057764;28;20056;-82
2023/01/15 10:33:33;;;;;;;2.53;0.50;;;;;;;;;;5050567;28;20052;-81
2023/01/15 10:36:02;;;;;;;0.82;0.20;;;;;;;;;;5049214;28;20024;-81
2023/01/15 10:38:34;;;;;;;0.82;0.22;;;;;;;;;;5049891;28;20059;-81
2023/01/15 10:41:19;;;;;;;1.08;0.40;;;;;;;;;;5052043;28;20128;-81
2023/01/15 10:43:59;;;;;;;2.30;0.65;;;;;;;;;;5048997;28;20033;-81
2023/01/15 10:46:28;;;;;;;0.85;0.30;;;;;;;;;;5046523;28;20407;-84
2023/01/15 10:49:05;;;;;;;1.55;0.20;;;;;;;;;;5048111;28;20112;-84
2023/01/15 10:51:45;;;;;;;2.40;0.50;;;;;;;;;;5036645;28;20041;-80
2023/01/15 10:54:18;;;;;;;4.60;1.48;;;;;;;;;;5047912;28;20044;-80
2023/01/15 10:56:55;;;;;;;6.05;1.88;;;;;;;;;;5043343;28;20029;-81
2023/01/15 10:59:24;;;;;;;7.68;2.40;;;;;;;;;;5055391;28;20770;-81
2023/01/15 11:01:52;;;;;;;6.93;3.05;;;;;;;;;;5049177;28;20040;-80
2023/01/15 11:04:18;;;;;;;10.52;6.75;;;;;;;;;;5054406;28;20044;-83
2023/01/15 11:06:44;;;;;;;6.72;3.60;;;;;;;;;;5072076;28;20043;-82
2023/01/15 11:09:18;;;;;;;4.75;2.30;;;;;;;;;;5066808;28;20060;-82
2023/01/15 11:20:33;;;;;;;4.63;1.45;;;;;;;;;;5071579;28;20134;-83
2023/01/15 11:23:07;;;;;;;11.55;6.20;;;;;;;;;;5071148;28;20039;-83
2023/01/15 11:25:33;;;;;;;7.93;4.55;;;;;;;;;;5069277;28;20028;-81
2023/01/15 11:28:01;;;;;;;8.65;4.68;;;;;;;;;;5070497;28;20533;-80
2023/01/15 11:30:28;;;;;;;4.85;1.90;;;;;;;;;;5066844;28;20033;-80
2023/01/15 11:32:58;;;;;;;6.80;1.73;;;;;;;;;;5072453;28;20044;-81
2023/01/15 11:35:25;;;;;;;6.82;2.13;;;;;;;;;;5073360;28;20487;-81
2023/01/15 11:38:01;;;;;;;3.33;1.10;;;;;;;;;;5053169;28;20033;-81
2023/01/15 11:40:27;;;;;;;1.60;0.50;;;;;;;;;;5072347;28;20112;-80
2023/01/15 11:51:34;;;;;;;1.75;0.40;;;;;;;;;;5069669;28;20035;-79
2023/01/15 11:54:05;;;;;;;2.10;0.60;;;;;;;;;;5064403;28;20557;-80
2023/01/15 11:56:32;;;;;;;2.22;0.80;;;;;;;;;;5069237;28;20132;-80
2023/01/15 11:59:01;;;;;;;1.30;0.40;;;;;;;;;;5069225;28;20055;-80
2023/01/15 12:01:33;;;;;;;1.23;0.30;;;;;;;;;;5068649;28;20036;-81
2023/01/15 12:04:05;;;;;;;1.85;0.40;;;;;;;;;;5068098;28;20037;-80
2023/01/15 12:06:31;;;;;;;1.50;0.70;;;;;;;;;;5030020;28;20111;-80
2023/01/15 12:09:12;;;;;;;2.08;0.70;;;;;;;;;;5030649;28;20041;-81
2023/01/15 12:11:51;;;;;;;4.30;0.50;;;;;;;;;;5050883;28;20041;-80
2023/01/15 12:14:32;;;;;;;1.58;0.40;;;;;;;;;;5046421;28;20710;-81
2023/01/15 12:17:13;;;;;;;1.00;0.30;;;;;;;;;;5050022;28;20087;-80
2023/01/15 12:19:49;;;;;;;1.48;0.40;;;;;;;;;;5033887;28;20040;-81
2023/01/15 12:22:28;;;;;;;1.63;0.60;;;;;;;;;;5047159;28;20468;-80
2023/01/15 12:25:07;;;;;;;2.88;1.00;;;;;;;;;;5050972;28;20872;-82
2023/01/15 12:27:36;;;;;;;2.58;0.70;;;;;;;;;;5036907;28;20045;-83
2023/01/15 12:30:21;;;;;;;1.38;0.70;;;;;;;;;;5027179;28;20033;-83
2023/01/15 12:32:52;;;;;;;0.32;0.20;;;;;;;;;;5032768;28;20037;-82
2023/01/15 12:35:23;;;;;;;1.23;0.30;;;;;;;;;;5054196;28;20040;-81
2023/01/15 12:37:55;;;;;;;0.75;0.22;;;;;;;;;;5041195;28;20044;-81
2023/01/15 12:40:41;;;;;;;0.30;0.10;;;;;;;;;;5035371;28;20037;-81
2023/01/15 12:46:00;;;;;;;0.85;0.13;;;;;;;;;;5044689;28;20059;-82
2023/01/15 12:48:42;;;;;;;0.82;0.28;;;;;;;;;;5047098;28;20039;-82
2023/01/15 12:51:08;;;;;;;1.33;0.35;;;;;;;;;;5044111;28;20028;-81
2023/01/15 12:53:43;;;;;;;0.30;0.10;;;;;;;;;;5049325;28;20115;-82
2023/01/15 12:56:09;;;;;;;1.33;0.30;;;;;;;;;;5049597;28;20033;-82
2023/01/15 12:58:54;;;;;;;1.30;0.32;;;;;;;;;;5027754;28;20059;-82
2023/01/15 13:01:35;;;;;;;0.88;0.20;;;;;;;;;;5043800;28;20476;-82
2023/01/15 13:04:21;;;;;;;0.40;0.13;;;;;;;;;;5035584;28;20037;-82
2023/01/15 13:06:50;;;;;;;0.52;0.17;;;;;;;;;;5051999;28;20128;-82
2023/01/15 13:09:31;;;;;;;0.85;0.22;;;;;;;;;;5047238;28;20116;-80
2023/01/15 13:11:57;;;;;;;0.43;0.20;;;;;;;;;;5048085;28;20072;-80
2023/01/15 13:14:23;;;;;;;1.73;0.63;;;;;;;;;;5047453;28;20103;-79
2023/01/15 13:16:57;;;;;;;0.73;0.20;;;;;;;;;;5046828;28;20024;-80
2023/01/15 13:19:43;;;;;;;2.20;0.40;;;;;;;;;;5045818;28;20037;-79
2023/01/15 13:22:18;;;;;;;1.48;0.45;;;;;;;;;;5046094;28;20619;-80
2023/01/15 13:24:56;;;;;;;2.42;0.73;;;;;;;;;;5030382;28;20036;-80
2023/01/15 13:28:00;;;;;;;2.40;0.90;;;;;;;;;;5029684;28;20029;-81
2023/01/15 13:30:38;;;;;;;3.38;1.02;;;;;;;;;;4965400;28;20034;-81
2023/01/15 13:33:12;;;;;;;2.28;0.70;;;;;;;;;;4968884;28;20031;-81
2023/01/15 13:35:44;;;;;;;2.22;0.50;;;;;;;;;;5018189;28;20115;-81
2023/01/15 13:38:19;;;;;;;1.63;0.40;;;;;;;;;;5060598;28;20061;-81
2023/01/15 13:40:49;;;;;;;1.67;0.22;;;;;;;;;;5051088;28;20040;-81
2023/01/15 13:43:28;;;;;;;3.00;0.57;;;;;;;;;;5047396;28;20025;-80
2023/01/15 13:45:54;;;;;;;0.75;0.30;;;;;;;;;;5048395;28;20043;-81
2023/01/15 13:48:32;;;;;;;2.95;0.90;;;;;;;;;;5046803;28;20032;-82
2023/01/15 13:51:00;;;;;;;4.75;2.25;;;;;;;;;;5048783;28;20079;-82
2023/01/15 13:53:27;;;;;;;3.35;1.30;;;;;;;;;;5050208;28;20041;-82
2023/01/15 13:56:05;;;;;;;1.98;0.70;;;;;;;;;;5048933;28;20028;-82
2023/01/15 13:58:32;;;;;;;1.45;0.50;;;;;;;;;;5046022;28;20037;-81
2023/01/15 14:01:01;;;;;;;2.40;0.77;;;;;;;;;;5050078;28;20025;-82
2023/01/15 14:03:29;;;;;;;2.38;0.80;;;;;;;;;;5026712;28;20033;-82
2023/01/15 14:05:56;;;;;;;6.15;2.00;;;;;;;;;;5068476;28;20124;-82
2023/01/15 14:08:25;;;;;;;3.60;1.20;;;;;;;;;;5063888;28;20111;-82
2023/01/15 14:10:54;;;;;;;6.25;2.80;;;;;;;;;;5068814;28;20025;-82
2023/01/15 14:13:34;;;;;;;9.05;3.97;;;;;;;;;;5063121;28;20068;-81
2023/01/15 14:16:03;;;;;;;6.55;2.47;;;;;;;;;;5066064;28;20025;-82
2023/01/15 14:18:48;;;;;;;7.85;3.30;;;;;;;;;;5051347;28;20036;-82
2023/01/15 14:21:23;;;;;;;9.45;5.35;;;;;;;;;;5067781;28;20028;-83
2023/01/15 14:24:08;;;;;;;4.32;1.83;;;;;;;;;;5062630;28;20033;-84
2023/01/15 14:26:48;;;;;;;4.88;1.05;;;;;;;;;;5069722;28;20060;-83
2023/01/15 14:29:24;;;;;;;6.72;2.53;;;;;;;;;;5067032;28;20064;-83
2023/01/15 14:32:09;;;;;;;8.15;3.75;;;;;;;;;;5069842;28;20021;-83
2023/01/15 14:34:35;;;;;;;7.60;3.80;;;;;;;;;;5047860;28;20083;-83
2023/01/15 14:37:07;;;;;;;6.15;1.98;;;;;;;;;;5052223;28;20031;-84
2023/01/15 14:39:36;;;;;;;4.72;1.27;;;;;;;;;;5051108;28;20037;-83
2023/01/15 14:44:58;;;;;;;2.67;0.88;;;;;;;;;;5066529;28;20046;-84
2023/01/15 14:47:27;;;;;;;4.80;1.20;;;;;;;;;;5072254;28;20029;-84
2023/01/15 14:50:19;;;;;;;15.32;6.32;;;;;;;;;;5049079;28;20060;-84
2023/01/15 14:52:46;;;;;;;9.80;4.38;;;;;;;;;;5056271;28;20044;-84
2023/01/15 14:55:12;;;;;;;7.57;3.53;;;;;;;;;;5071330;28;20112;-84
2023/01/15 14:57:39;;;;;;;7.05;4.32;;;;;;;;;;5065980;28;20463;-84
2023/01/15 15:00:05;;;;;;;8.50;5.30;;;;;;;;;;5049990;28;20544;-83
2023/01/15 15:02:37;;;;;;;5.95;2.72;;;;;;;;;;5053727;28;20024;-84
2023/01/15 15:05:07;;;;;;;5.13;1.87;;;;;;;;;;5070861;28;20053;-82
2023/01/15 15:07:40;;;;;;;5.13;1.33;;;;;;;;;;5049549;28;20043;-83
2023/01/15 15:10:11;;;;;;;4.80;2.10;;;;;;;;;;5051516;28;20044;-84
2023/01/15 15:12:40;;;;;;;4.90;2.10;;;;;;;;;;5050685;28;20859;-81
2023/01/15 15:15:27;;;;;;;6.30;2.92;;;;;;;;;;5071786;28;20107;-82
2023/01/15 15:18:06;;;;;;;8.85;3.72;;;;;;;;;;5040788;28;20043;-81
2023/01/15 15:20:38;;;;;;;11.35;4.25;;;;;;;;;;5070048;28;20695;-81
2023/01/15 15:23:10;;;;;;;11.10;4.95;;;;;;;;;;5053017;28;20471;-81
2023/01/15 15:25:38;;;;;;;11.37;7.57;;;;;;;;;;5073136;28;20078;-81
2023/01/15 15:28:09;;;;;;;22.83;14.13;;;;;;;;;;5071804;28;20033;-82
2023/01/15 15:30:39;;;;;;;13.27;6.72;;;;;;;;;;5072031;28;20032;-82
2023/01/15 15:33:05;;;;;;;14.15;7.20;;;;;;;;;;5072802;28;20368;-82
2023/01/15 15:35:31;;;;;;;23.83;15.65;;;;;;;;;;5073520;28;20839;-82
2023/01/15 15:38:02;;;;;;;24.45;15.57;;;;;;;;;;5072623;28;20028;-83
2023/01/15 15:40:31;;;;;;;20.45;13.13;;;;;;;;;;5053442;28;20530;-83
2023/01/15 15:48:40;;;;;;;7.72;4.20;;;;;;;;;;5069455;28;20052;-83
2023/01/15 15:51:25;;;;;;;8.32;5.50;;;;;;;;;;5071511;28;20056;-81
2023/01/15 15:54:02;;;;;;;12.95;6.03;;;;;;;;;;5048779;28;20051;-81
2023/01/15 15:56:28;;;;;;;13.15;9.15;;;;;;;;;;5070254;28;20139;-81